Time;durP1;ratioP1;P1;durP2;ratioP2;P2;SDS_P1;SDS_P2;PMS_P1;PMS_P2;Temp;Humidity;BMP_temperature;BMP_pressure;BME280_temperature;BME280_humidity;BME280_pressure;Samples;Min_cycle;Max_cycle;Signal;HPM_P1;HPM_P2
2023/08/17 00:01:39;;;;;;;7.63;6.80;;;21.50;99.90;;;;;;5035686;28;20191;-69
2023/08/17 00:04:04;;;;;;;6.80;6.23;;;21.60;99.90;;;;;;5035014;28;20885;-70
2023/08/17 00:06:30;;;;;;;7.57;6.87;;;21.60;99.90;;;;;;5034900;28;20183;-71
2023/08/17 00:08:56;;;;;;;7.10;6.40;;;21.60;99.90;;;;;;5035318;28;20206;-71
2023/08/17 00:11:21;;;;;;;7.57;6.87;;;21.50;99.90;;;;;;5035331;28;20191;-71
2023/08/17 00:13:47;;;;;;;8.43;7.73;;;21.60;99.90;;;;;;5035226;28;20508;-71
2023/08/17 00:16:13;;;;;;;8.90;7.47;;;21.60;99.90;;;;;;5035288;28;20340;-71
2023/08/17 00:18:38;;;;;;;10.27;9.27;;;21.50;99.90;;;;;;5034572;28;20250;-70
2023/08/17 00:21:04;;;;;;;8.17;7.47;;;21.50;99.90;;;;;;5035108;28;20264;-71
2023/08/17 00:23:30;;;;;;;7.90;7.20;;;21.60;99.90;;;;;;5035169;28;20182;-71
2023/08/17 00:25:55;;;;;;;7.87;7.13;;;21.60;99.90;;;;;;5035390;28;20179;-70
2023/08/17 00:28:21;;;;;;;7.67;6.93;;;21.70;99.90;;;;;;5033766;28;20598;-71
2023/08/17 00:30:46;;;;;;;11.63;7.90;;;21.70;99.90;;;;;;5034937;28;20574;-71
2023/08/17 00:33:12;;;;;;;9.20;8.40;;;21.80;99.90;;;;;;5034683;28;20171;-71
2023/08/17 00:35:37;;;;;;;8.00;7.20;;;21.80;99.90;;;;;;5034867;28;20566;-70
2023/08/17 00:38:03;;;;;;;16.23;8.50;;;21.90;99.90;;;;;;5034846;28;20237;-71
2023/08/17 00:40:29;;;;;;;11.00;9.37;;;21.90;99.90;;;;;;5034972;28;20183;-71
2023/08/17 00:42:54;;;;;;;7.77;7.00;;;22.00;99.90;;;;;;5035275;28;20227;-71
2023/08/17 00:45:22;;;;;;;8.70;7.60;;;22.00;99.90;;;;;;5035228;28;20167;-71
2023/08/17 00:47:47;;;;;;;8.63;7.80;;;22.10;99.90;;;;;;5035264;28;20163;-71
2023/08/17 00:50:14;;;;;;;8.27;7.47;;;22.10;99.90;;;;;;5035628;28;20753;-71
2023/08/17 00:52:41;;;;;;;9.10;8.30;;;22.20;99.90;;;;;;5035330;28;20214;-71
2023/08/17 00:55:07;;;;;;;9.57;8.73;;;22.20;99.90;;;;;;5035468;28;20454;-71
2023/08/17 00:57:33;;;;;;;8.10;6.87;;;22.30;99.90;;;;;;5035226;28;20928;-71
2023/08/17 01:00:00;;;;;;;7.80;7.20;;;22.30;99.90;;;;;;5035009;28;20410;-71
2023/08/17 01:02:26;;;;;;;8.33;7.53;;;22.40;99.90;;;;;;5034322;28;20317;-72
2023/08/17 01:04:52;;;;;;;9.80;8.87;;;22.40;99.90;;;;;;5034147;28;20410;-71
2023/08/17 01:07:17;;;;;;;9.67;8.77;;;22.30;99.90;;;;;;5034630;28;20771;-71
2023/08/17 01:09:43;;;;;;;10.10;9.10;;;22.20;99.90;;;;;;5034299;28;20529;-70
2023/08/17 01:12:24;;;;;;;8.87;8.07;;;22.10;99.90;;;;;;5034366;28;20199;-71
2023/08/17 01:15:15;;;;;;;8.10;7.30;;;22.20;99.90;;;;;;5033977;28;20210;-71
2023/08/17 01:17:54;;;;;;;9.20;7.97;;;22.30;99.90;;;;;;5015799;28;20423;-70
2023/08/17 01:20:23;;;;;;;9.20;8.30;;;22.50;99.90;;;;;;5034339;28;20377;-72
2023/08/17 01:22:50;;;;;;;9.20;7.90;;;22.40;99.90;;;;;;5033795;28;20437;-71
2023/08/17 01:25:15;;;;;;;8.43;7.73;;;22.50;99.90;;;;;;5034701;28;20541;-71
2023/08/17 01:27:43;;;;;;;8.93;8.13;;;22.60;99.90;;;;;;5033773;28;20401;-71
2023/08/17 01:30:12;;;;;;;8.10;6.70;;;22.70;99.90;;;;;;5033857;28;20156;-72
2023/08/17 01:32:59;;;;;;;9.50;7.37;;;22.80;99.90;;;;;;5033634;28;20410;-71
2023/08/17 01:35:31;;;;;;;8.40;6.80;;;22.80;99.90;;;;;;5022970;28;20756;-70
2023/08/17 01:38:05;;;;;;;9.70;8.80;;;22.90;99.90;;;;;;5034333;28;20426;-71
2023/08/17 01:40:33;;;;;;;10.23;7.87;;;22.80;99.90;;;;;;5034014;28;20461;-71
2023/08/17 01:42:59;;;;;;;9.43;8.53;;;22.80;99.90;;;;;;5033405;28;20406;-71
2023/08/17 01:45:25;;;;;;;10.07;8.90;;;22.80;99.90;;;;;;5034020;28;20406;-71
2023/08/17 01:47:51;;;;;;;9.23;8.43;;;22.90;99.90;;;;;;5033235;28;20419;-71
2023/08/17 01:50:16;;;;;;;8.90;7.70;;;23.00;99.90;;;;;;5033243;28;20716;-71
2023/08/17 01:52:42;;;;;;;8.87;8.07;;;23.00;99.90;;;;;;5033347;28;20187;-71
2023/08/17 01:55:08;;;;;;;9.67;8.30;;;23.00;99.90;;;;;;5033384;28;20246;-71
2023/08/17 01:57:35;;;;;;;13.03;8.50;;;22.90;99.90;;;;;;5032754;28;20195;-71
2023/08/17 02:00:01;;;;;;;11.30;8.13;;;23.00;99.90;;;;;;5031492;28;20406;-71
2023/08/17 02:02:26;;;;;;;11.13;10.03;;;23.00;99.90;;;;;;5031891;28;20422;-71
2023/08/17 02:04:52;;;;;;;9.53;8.53;;;22.90;99.90;;;;;;5032770;28;20164;-71
2023/08/17 02:07:17;;;;;;;10.00;8.00;;;22.90;99.90;;;;;;5033280;28;20681;-72
2023/08/17 02:09:43;;;;;;;10.87;9.90;;;22.90;99.90;;;;;;5033163;28;20180;-72
2023/08/17 02:12:08;;;;;;;9.17;8.27;;;22.90;99.90;;;;;;5033003;28;20187;-72
2023/08/17 02:14:34;;;;;;;8.43;7.73;;;22.80;99.90;;;;;;5033075;28;20167;-71
2023/08/17 02:16:59;;;;;;;10.13;8.17;;;22.80;99.90;;;;;;5032940;28;20191;-70
2023/08/17 02:19:25;;;;;;;10.60;8.50;;;22.90;99.90;;;;;;5032433;28;20171;-70
2023/08/17 02:21:51;;;;;;;8.80;8.00;;;22.90;99.90;;;;;;5049691;23;20215;-71
2023/08/17 02:24:16;;;;;;;8.37;7.63;;;22.80;99.90;;;;;;5013541;28;20578;-71
2023/08/17 02:26:42;;;;;;;11.17;8.97;;;22.70;99.90;;;;;;5013589;28;20495;-70
2023/08/17 02:29:08;;;;;;;8.87;8.00;;;22.70;99.90;;;;;;5026393;28;20171;-71
2023/08/17 02:31:33;;;;;;;8.10;7.37;;;22.80;99.90;;;;;;5032335;28;20183;-70
2023/08/17 02:34:04;;;;;;;9.67;8.40;;;22.80;99.90;;;;;;5032690;28;20175;-71
2023/08/17 02:36:30;;;;;;;7.70;7.10;;;22.90;99.90;;;;;;5032812;28;20183;-70
2023/08/17 02:38:56;;;;;;;8.07;7.37;;;22.90;99.90;;;;;;5021284;28;20411;-71
2023/08/17 02:41:21;;;;;;;7.63;6.90;;;22.90;99.90;;;;;;5013215;28;20642;-71
2023/08/17 02:43:47;;;;;;;9.50;8.40;;;23.00;99.90;;;;;;5013383;28;20179;-71
2023/08/17 02:46:12;;;;;;;10.00;9.07;;;23.00;99.90;;;;;;5014690;28;20255;-71
2023/08/17 02:48:38;;;;;;;9.20;8.30;;;22.90;99.90;;;;;;5023375;28;20179;-71
2023/08/17 02:51:03;;;;;;;9.23;8.23;;;22.90;99.90;;;;;;5012916;28;20661;-70
2023/08/17 02:53:29;;;;;;;8.80;8.10;;;22.90;99.90;;;;;;5012906;28;20646;-70
2023/08/17 02:55:55;;;;;;;9.70;8.80;;;22.90;99.90;;;;;;5012916;28;20192;-70
2023/08/17 02:58:20;;;;;;;8.10;7.30;;;22.90;99.90;;;;;;5018736;28;20627;-70
2023/08/17 03:00:46;;;;;;;10.40;8.47;;;22.90;99.90;;;;;;5032564;28;20213;-71
2023/08/17 03:03:12;;;;;;;9.80;8.90;;;23.00;99.90;;;;;;5032224;28;20251;-71
2023/08/17 03:05:37;;;;;;;12.67;9.33;;;23.00;99.90;;;;;;5032535;28;20171;-70
2023/08/17 03:08:03;;;;;;;9.60;8.70;;;23.00;99.90;;;;;;5028513;28;20521;-71
2023/08/17 03:10:29;;;;;;;9.77;8.70;;;23.00;99.90;;;;;;5013127;28;20393;-72
2023/08/17 03:12:55;;;;;;;10.70;9.80;;;22.90;99.90;;;;;;5012772;28;20238;-70
2023/08/17 03:15:20;;;;;;;9.33;8.53;;;22.80;99.90;;;;;;5013016;28;20502;-70
2023/08/17 03:17:46;;;;;;;9.87;8.87;;;22.80;99.90;;;;;;5014249;28;20263;-72
2023/08/17 03:20:11;;;;;;;9.83;8.90;;;22.80;99.90;;;;;;5032440;28;20163;-71
2023/08/17 03:22:37;;;;;;;13.20;11.13;;;22.70;99.90;;;;;;5032170;28;20284;-71
2023/08/17 03:25:03;;;;;;;8.67;7.87;;;22.70;99.90;;;;;;5029021;28;20541;-71
2023/08/17 03:27:29;;;;;;;9.90;8.90;;;22.80;99.90;;;;;;5032380;28;20167;-70
2023/08/17 03:29:54;;;;;;;9.00;8.10;;;22.80;99.90;;;;;;5012167;28;20414;-71
2023/08/17 03:32:20;;;;;;;11.93;10.27;;;22.80;99.90;;;;;;5013121;28;20200;-70
2023/08/17 03:34:45;;;;;;;12.27;11.13;;;22.80;99.90;;;;;;5012087;28;20550;-71
2023/08/17 03:37:11;;;;;;;13.70;10.13;;;22.70;99.90;;;;;;5012704;28;20188;-71
2023/08/17 03:39:37;;;;;;;10.37;9.40;;;22.70;99.90;;;;;;5028784;28;20191;-71
2023/08/17 03:42:02;;;;;;;9.83;8.93;;;22.60;99.90;;;;;;5034450;28;20549;-71
2023/08/17 03:44:28;;;;;;;9.77;8.87;;;22.60;99.90;;;;;;5020828;28;20176;-71
2023/08/17 03:46:54;;;;;;;13.10;11.27;;;22.60;99.90;;;;;;5016043;28;20634;-72
2023/08/17 03:49:19;;;;;;;10.87;8.57;;;22.60;99.90;;;;;;5029354;28;20259;-72
2023/08/17 03:51:45;;;;;;;12.17;10.97;;;22.60;99.90;;;;;;5035895;28;20298;-72
2023/08/17 03:54:12;;;;;;;13.83;10.53;;;22.60;99.90;;;;;;5035754;28;20217;-71
2023/08/17 03:56:37;;;;;;;11.10;10.00;;;22.50;99.90;;;;;;5035772;28;20191;-71
2023/08/17 03:59:04;;;;;;;11.33;10.33;;;22.50;99.90;;;;;;5024379;28;20414;-72
2023/08/17 04:01:29;;;;;;;11.60;9.10;;;22.50;99.90;;;;;;5016056;28;20846;-71
2023/08/17 04:03:55;;;;;;;10.00;9.00;;;22.50;99.90;;;;;;5015502;28;20164;-70
2023/08/17 04:06:20;;;;;;;10.00;9.10;;;22.60;99.90;;;;;;5015134;28;20259;-71
2023/08/17 04:08:46;;;;;;;11.40;10.43;;;22.60;99.90;;;;;;5024383;28;20645;-71
2023/08/17 04:11:12;;;;;;;11.47;10.30;;;22.60;99.90;;;;;;5035528;28;20171;-71
2023/08/17 04:13:37;;;;;;;10.57;9.57;;;22.60;99.90;;;;;;5027235;28;20182;-70
2023/08/17 04:16:03;;;;;;;10.40;9.40;;;22.50;99.90;;;;;;5015649;28;20216;-72
2023/08/17 04:18:29;;;;;;;13.20;10.87;;;22.60;99.90;;;;;;5021743;28;20171;-71
2023/08/17 04:20:54;;;;;;;12.10;11.00;;;22.60;99.90;;;;;;5035361;28;20175;-71
2023/08/17 04:23:20;;;;;;;11.33;10.23;;;22.50;99.90;;;;;;5035176;28;20269;-70
2023/08/17 04:25:47;;;;;;;14.00;10.53;;;22.60;99.90;;;;;;5035141;28;20178;-71
2023/08/17 04:28:12;;;;;;;11.57;10.50;;;22.60;99.90;;;;;;5030870;28;20230;-70
2023/08/17 04:30:38;;;;;;;14.33;12.20;;;22.60;99.90;;;;;;5015399;28;20415;-71
2023/08/17 04:33:04;;;;;;;10.57;9.57;;;22.60;99.90;;;;;;5015102;28;20241;-70
2023/08/17 04:35:30;;;;;;;14.80;11.63;;;22.70;99.90;;;;;;5014899;28;20586;-70
2023/08/17 04:37:55;;;;;;;10.60;9.60;;;22.70;99.90;;;;;;5021768;28;20404;-70
2023/08/17 04:40:21;;;;;;;10.80;9.90;;;22.60;99.90;;;;;;5015706;28;20172;-71
2023/08/17 04:42:46;;;;;;;12.80;11.60;;;22.70;99.90;;;;;;5014976;28;20191;-70
2023/08/17 04:45:12;;;;;;;12.67;11.40;;;22.70;99.90;;;;;;5015145;28;20279;-71
2023/08/17 04:47:38;;;;;;;13.10;11.90;;;22.70;99.90;;;;;;5015177;28;20171;-70
2023/08/17 04:50:04;;;;;;;11.70;10.60;;;22.80;99.90;;;;;;5033557;28;20486;-71
2023/08/17 04:52:30;;;;;;;13.50;12.10;;;22.90;99.90;;;;;;5034219;28;20418;-71
2023/08/17 04:54:56;;;;;;;12.60;11.30;;;22.80;99.90;;;;;;5034550;28;20488;-71
2023/08/17 04:57:21;;;;;;;13.33;11.97;;;22.90;99.90;;;;;;5033389;28;20195;-71
2023/08/17 04:59:47;;;;;;;16.67;14.97;;;22.90;99.90;;;;;;5017775;28;20648;-72
2023/08/17 05:02:12;;;;;;;13.57;12.27;;;22.90;99.90;;;;;;5014611;28;20192;-71
2023/08/17 05:04:39;;;;;;;15.53;14.00;;;23.00;99.90;;;;;;5014186;28;20214;-70
2023/08/17 05:07:05;;;;;;;14.83;13.13;;;23.00;99.90;;;;;;5014939;28;20179;-70
2023/08/17 05:09:31;;;;;;;13.87;12.57;;;23.00;99.90;;;;;;5029025;28;20556;-71
2023/08/17 05:11:56;;;;;;;15.60;14.10;;;22.90;99.90;;;;;;5034149;28;20198;-71
2023/08/17 05:14:22;;;;;;;16.53;14.87;;;23.00;99.90;;;;;;5019931;28;20530;-71
2023/08/17 05:16:47;;;;;;;15.27;13.80;;;22.90;99.90;;;;;;5016822;28;20238;-71
2023/08/17 05:19:13;;;;;;;13.73;12.33;;;22.90;99.90;;;;;;5025725;28;20174;-72
2023/08/17 05:21:38;;;;;;;16.20;14.70;;;23.00;99.90;;;;;;5034162;28;20203;-70
2023/08/17 05:24:04;;;;;;;16.63;15.07;;;23.10;99.90;;;;;;5034516;28;20242;-72
2023/08/17 05:26:30;;;;;;;18.87;16.60;;;23.10;99.90;;;;;;5034491;28;20170;-70
2023/08/17 05:28:56;;;;;;;15.93;14.43;;;23.10;99.90;;;;;;5024920;28;20218;-73
2023/08/17 05:31:21;;;;;;;15.30;12.87;;;23.00;99.90;;;;;;5014285;28;20609;-72
2023/08/17 05:33:47;;;;;;;14.80;13.40;;;23.10;99.90;;;;;;5013882;28;20259;-72
2023/08/17 05:36:13;;;;;;;13.90;12.70;;;23.10;99.90;;;;;;5014165;28;20192;-70
2023/08/17 05:38:38;;;;;;;16.13;14.57;;;23.10;99.90;;;;;;5020874;28;20159;-70
2023/08/17 05:41:04;;;;;;;15.17;13.83;;;23.20;99.90;;;;;;5032689;28;20905;-71
2023/08/17 05:43:29;;;;;;;16.30;14.27;;;23.30;99.90;;;;;;5027242;28;20183;-72
2023/08/17 05:45:59;;;;;;;15.97;14.57;;;23.40;99.90;;;;;;5014892;28;20168;-72
2023/08/17 05:48:24;;;;;;;16.40;14.80;;;23.40;99.90;;;;;;5017176;28;20172;-72
2023/08/17 05:50:50;;;;;;;15.77;14.27;;;23.40;99.90;;;;;;5033753;28;20548;-72
2023/08/17 05:53:16;;;;;;;15.90;14.47;;;23.00;99.90;;;;;;5033563;28;20199;-71
2023/08/17 05:55:41;;;;;;;18.03;16.30;;;22.90;99.90;;;;;;5033794;28;20175;-72
2023/08/17 05:58:07;;;;;;;16.03;14.53;;;23.00;99.90;;;;;;5031997;28;20179;-70
2023/08/17 06:00:32;;;;;;;18.23;16.50;;;23.00;99.90;;;;;;5013624;28;20585;-72
2023/08/17 06:03:01;;;;;;;16.20;14.60;;;23.10;99.90;;;;;;5013898;28;20677;-73
2023/08/17 06:05:30;;;;;;;16.47;14.90;;;23.30;99.90;;;;;;5013370;28;20279;-71
2023/08/17 06:07:59;;;;;;;16.13;14.63;;;23.40;99.90;;;;;;5014173;28;20411;-72
2023/08/17 06:10:25;;;;;;;16.23;14.53;;;23.60;99.90;;;;;;5034199;28;20980;-71
2023/08/17 06:12:54;;;;;;;17.37;15.63;;;23.70;99.90;;;;;;5032077;28;20433;-72
2023/08/17 06:15:20;;;;;;;18.30;15.97;;;23.80;99.90;;;;;;5014561;28;20399;-71
2023/08/17 06:17:45;;;;;;;14.90;13.50;;;23.70;99.90;;;;;;5013462;28;20533;-71
2023/08/17 06:20:12;;;;;;;15.87;14.47;;;23.90;99.90;;;;;;5031583;28;20696;-72
2023/08/17 06:22:37;;;;;;;19.37;16.10;;;23.80;99.90;;;;;;5033003;28;20669;-71
2023/08/17 06:25:05;;;;;;;17.40;15.60;;;23.80;99.90;;;;;;5031674;28;20461;-72
2023/08/17 06:27:30;;;;;;;15.27;13.77;;;23.80;99.90;;;;;;5033409;28;20167;-72
2023/08/17 06:29:56;;;;;;;15.67;14.03;;;23.90;99.90;;;;;;5016669;28;20407;-71
2023/08/17 06:32:21;;;;;;;14.00;12.70;;;23.80;99.90;;;;;;5013497;28;20693;-71
2023/08/17 06:34:47;;;;;;;16.87;15.37;;;23.80;99.90;;;;;;5022733;28;20172;-73
2023/08/17 06:37:13;;;;;;;16.07;14.47;;;23.80;99.90;;;;;;5033118;28;20225;-73
2023/08/17 06:39:38;;;;;;;15.10;13.70;;;24.10;99.90;;;;;;5019051;28;20178;-71
2023/08/17 06:42:04;;;;;;;14.23;12.90;;;24.20;99.90;;;;;;5013008;28;20219;-71
2023/08/17 06:44:30;;;;;;;15.23;13.80;;;24.20;99.90;;;;;;5011174;28;20187;-71
2023/08/17 06:46:56;;;;;;;14.20;12.80;;;24.40;99.90;;;;;;5012722;28;20174;-72
2023/08/17 06:49:22;;;;;;;16.57;14.80;;;24.40;99.90;;;;;;5023462;28;20413;-71
2023/08/17 06:51:48;;;;;;;14.57;13.27;;;24.30;99.90;;;;;;5032151;28;20803;-72
2023/08/17 06:54:13;;;;;;;13.03;11.30;;;24.20;99.90;;;;;;5032230;28;20171;-72
2023/08/17 06:56:39;;;;;;;12.17;11.07;;;24.30;99.90;;;;;;5032158;28;20195;-70
2023/08/17 06:59:04;;;;;;;11.87;10.77;;;24.50;99.90;;;;;;5022996;28;20206;-72
2023/08/17 07:01:30;;;;;;;16.13;14.50;;;24.60;99.90;;;;;;5012333;28;20198;-72
2023/08/17 07:03:57;;;;;;;13.50;12.20;;;24.60;99.90;;;;;;5012958;28;20353;-72
2023/08/17 07:06:23;;;;;;;16.20;13.33;;;24.50;99.90;;;;;;5012591;28;20582;-72
2023/08/17 07:08:48;;;;;;;13.40;12.20;;;24.60;99.90;;;;;;5021289;28;20414;-71
2023/08/17 07:11:14;;;;;;;14.20;13.00;;;24.40;99.90;;;;;;5032352;28;20437;-71
2023/08/17 07:13:39;;;;;;;14.80;11.20;;;24.30;99.90;;;;;;5023305;28;20180;-71
2023/08/17 07:16:05;;;;;;;14.37;13.00;;;24.10;99.90;;;;;;5013115;28;20282;-71
2023/08/17 07:18:30;;;;;;;12.70;11.40;;;24.40;99.90;;;;;;5018986;28;20551;-71
2023/08/17 07:20:56;;;;;;;15.30;13.83;;;24.60;99.90;;;;;;5035446;28;20214;-70
2023/08/17 07:23:21;;;;;;;12.43;10.77;;;24.70;99.90;;;;;;5035976;28;20183;-71
2023/08/17 07:25:48;;;;;;;12.17;10.70;;;24.60;99.90;;;;;;5035892;28;20262;-71
2023/08/17 07:28:15;;;;;;;11.80;10.77;;;24.60;99.90;;;;;;5034907;28;20179;-71
2023/08/17 07:30:41;;;;;;;12.90;11.70;;;24.60;99.90;;;;;;5016626;28;20406;-71
2023/08/17 07:33:07;;;;;;;12.03;11.03;;;24.80;99.90;;;;;;5016266;28;20434;-70
2023/08/17 07:35:32;;;;;;;11.40;10.30;;;24.80;99.90;;;;;;5015914;28;20230;-71
2023/08/17 07:37:58;;;;;;;12.47;11.37;;;24.70;99.90;;;;;;5016174;28;20206;-72
2023/08/17 07:40:23;;;;;;;11.77;10.67;;;24.40;99.90;;;;;;5036173;28;20183;-71
2023/08/17 07:42:49;;;;;;;12.30;11.00;;;24.30;99.90;;;;;;5034947;28;20245;-70
2023/08/17 07:45:14;;;;;;;11.47;10.43;;;24.20;99.90;;;;;;5016495;28;20168;-72
2023/08/17 07:47:40;;;;;;;12.67;11.50;;;24.00;99.90;;;;;;5016726;28;20168;-72
2023/08/17 07:50:06;;;;;;;11.77;10.80;;;24.30;99.90;;;;;;5031367;28;20517;-73
2023/08/17 07:52:32;;;;;;;9.53;8.60;;;24.30;99.90;;;;;;5036552;28;20334;-71
2023/08/17 07:54:57;;;;;;;13.70;12.20;;;24.40;99.90;;;;;;5036689;28;20505;-72
2023/08/17 07:57:23;;;;;;;11.40;10.50;;;24.50;99.90;;;;;;5035703;28;20199;-71
2023/08/17 07:59:48;;;;;;;13.43;12.13;;;24.00;99.90;;;;;;5021331;28;20176;-73
2023/08/17 08:02:14;;;;;;;11.53;10.50;;;24.00;99.90;;;;;;5015970;28;20279;-73
2023/08/17 08:04:40;;;;;;;11.60;10.27;;;24.00;99.90;;;;;;5015335;28;20500;-72
2023/08/17 08:07:06;;;;;;;12.03;10.87;;;24.20;99.90;;;;;;5015929;28;20526;-71
2023/08/17 08:09:31;;;;;;;12.07;10.97;;;24.30;99.90;;;;;;5027293;28;20585;-72
2023/08/17 08:11:57;;;;;;;12.47;11.27;;;24.20;99.90;;;;;;5035560;28;20457;-71
2023/08/17 08:14:22;;;;;;;10.57;9.47;;;24.50;99.90;;;;;;5020484;28;20180;-73
2023/08/17 08:16:48;;;;;;;11.77;10.50;;;24.60;99.90;;;;;;5014345;28;20553;-72
2023/08/17 08:19:13;;;;;;;12.67;11.50;;;25.00;99.90;;;;;;5024503;28;20167;-72
2023/08/17 08:21:39;;;;;;;14.80;12.80;;;24.50;99.90;;;;;;5024136;28;20246;-72
2023/08/17 08:24:05;;;;;;;11.87;10.70;;;24.10;99.90;;;;;;5015559;28;20176;-71
2023/08/17 08:26:30;;;;;;;13.80;12.57;;;24.40;99.90;;;;;;5015426;28;20559;-71
2023/08/17 08:28:56;;;;;;;13.33;12.00;;;24.50;99.90;;;;;;5018012;28;20187;-72
2023/08/17 08:31:21;;;;;;;15.03;13.70;;;24.50;99.90;;;;;;5015587;28;20267;-72
2023/08/17 08:33:47;;;;;;;16.47;13.27;;;24.40;99.90;;;;;;5015390;28;20184;-71
2023/08/17 08:36:12;;;;;;;13.63;12.43;;;24.50;99.90;;;;;;5014915;28;20211;-71
2023/08/17 08:38:38;;;;;;;14.67;13.27;;;24.80;99.90;;;;;;5019223;28;20160;-71
2023/08/17 08:41:05;;;;;;;12.30;11.23;;;24.90;99.90;;;;;;5034626;28;20186;-71
2023/08/17 08:43:30;;;;;;;12.23;11.03;;;25.20;99.90;;;;;;5026983;28;20169;-71
2023/08/17 08:45:58;;;;;;;12.40;11.20;;;25.20;99.90;;;;;;5014738;28;20403;-72
2023/08/17 08:48:26;;;;;;;12.77;11.60;;;25.40;99.90;;;;;;5016692;28;20207;-70
2023/08/17 08:50:55;;;;;;;13.77;12.47;;;25.70;99.90;;;;;;5034344;28;20406;-71
2023/08/17 08:53:28;;;;;;;12.57;11.37;;;25.90;99.90;;;;;;5034666;28;20398;-72
2023/08/17 08:55:57;;;;;;;14.43;13.13;;;26.10;99.90;;;;;;5035014;28;20430;-71
2023/08/17 08:58:25;;;;;;;14.10;12.73;;;26.00;99.90;;;;;;5033196;28;20417;-72
2023/08/17 09:00:53;;;;;;;14.63;12.33;;;25.80;99.90;;;;;;5014814;28;20486;-71
2023/08/17 09:03:20;;;;;;;15.30;11.80;;;25.70;99.90;;;;;;5017136;28;20432;-72
2023/08/17 09:05:49;;;;;;;12.23;11.23;;;25.50;99.90;;;;;;5014211;28;20494;-72
2023/08/17 09:08:21;;;;;;;14.07;12.70;;;25.70;99.90;;;;;;5015167;28;20418;-72
2023/08/17 09:10:47;;;;;;;12.03;10.83;;;25.70;99.90;;;;;;5034258;28;20414;-71
2023/08/17 09:13:12;;;;;;;10.87;9.93;;;26.00;99.90;;;;;;5029113;28;20460;-71
2023/08/17 09:15:38;;;;;;;15.33;11.90;;;26.30;99.90;;;;;;5014235;28;20635;-72
2023/08/17 09:18:07;;;;;;;11.60;10.50;;;26.50;99.90;;;;;;5014738;28;20191;-72
2023/08/17 09:20:52;;;;;;;14.40;13.00;;;26.50;99.90;;;;;;5032875;28;20163;-72
2023/08/17 09:23:22;;;;;;;13.83;12.53;;;26.30;99.90;;;;;;5033871;28;20434;-71
2023/08/17 09:25:49;;;;;;;13.80;12.47;;;26.20;99.90;;;;;;5034161;28;20398;-72
2023/08/17 09:28:19;;;;;;;12.87;11.57;;;26.40;99.90;;;;;;5033593;28;20923;-71
2023/08/17 09:30:54;;;;;;;13.07;11.77;;;26.20;99.90;;;;;;4994417;28;20458;-71
2023/08/17 09:33:25;;;;;;;11.57;10.47;;;26.20;99.90;;;;;;4994583;28;20408;-72
2023/08/17 09:35:52;;;;;;;13.40;12.07;;;26.40;99.90;;;;;;4994276;28;20958;-71
2023/08/17 09:38:18;;;;;;;11.73;10.63;;;26.30;99.90;;;;;;5006428;28;20434;-72
2023/08/17 09:40:44;;;;;;;11.30;10.10;;;26.60;99.90;;;;;;5013281;28;20408;-71
2023/08/17 09:43:10;;;;;;;12.10;10.40;;;26.80;99.90;;;;;;5013639;28;20470;-72
2023/08/17 09:45:38;;;;;;;11.70;10.13;;;27.10;99.90;;;;;;5013809;28;20411;-69
2023/08/17 09:48:04;;;;;;;13.17;11.97;;;27.50;99.90;;;;;;5024535;28;20766;-71
2023/08/17 09:50:30;;;;;;;15.60;12.90;;;27.60;99.90;;;;;;5033229;28;20885;-72
2023/08/17 09:52:55;;;;;;;13.83;12.50;;;27.60;99.90;;;;;;5033408;28;20548;-71
2023/08/17 09:55:24;;;;;;;13.00;11.80;;;27.80;99.90;;;;;;5033608;28;20631;-71
2023/08/17 09:57:51;;;;;;;13.83;12.40;;;27.80;99.90;;;;;;5024454;28;20210;-71
2023/08/17 10:00:21;;;;;;;12.60;11.50;;;27.80;99.90;;;;;;5013298;28;20506;-72
2023/08/17 10:02:53;;;;;;;12.40;11.30;;;27.80;99.90;;;;;;5013575;28;20476;-70
2023/08/17 10:05:20;;;;;;;14.10;13.00;;;28.00;99.90;;;;;;5013405;28;20392;-72
2023/08/17 10:07:53;;;;;;;14.97;13.20;;;28.00;99.90;;;;;;5021123;28;20406;-71
2023/08/17 10:10:24;;;;;;;12.00;10.90;;;28.20;99.90;;;;;;5015501;28;20493;-72
2023/08/17 10:13:06;;;;;;;13.30;12.10;;;28.30;99.90;;;;;;5031026;28;20433;-72
2023/08/17 10:15:36;;;;;;;13.93;12.63;;;28.10;99.90;;;;;;5013215;28;20407;-72
2023/08/17 10:18:20;;;;;;;13.43;12.03;;;28.10;99.90;;;;;;5023415;28;20506;-71
2023/08/17 10:21:01;;;;;;;12.80;11.60;;;28.40;99.90;;;;;;5024444;28;20404;-72
2023/08/17 10:23:28;;;;;;;12.93;11.83;;;28.10;99.90;;;;;;5013168;28;20403;-71
2023/08/17 10:25:54;;;;;;;11.40;10.40;;;28.10;99.90;;;;;;5017337;28;20421;-71
2023/08/17 10:28:24;;;;;;;12.10;11.00;;;28.50;99.90;;;;;;5020645;28;20414;-71
2023/08/17 10:30:50;;;;;;;12.33;11.27;;;28.90;99.90;;;;;;5012843;28;20754;-72
2023/08/17 10:33:17;;;;;;;12.00;10.90;;;29.10;99.90;;;;;;5012925;28;20818;-71
2023/08/17 10:35:44;;;;;;;12.20;11.00;;;29.20;99.90;;;;;;5012657;28;20906;-71
2023/08/17 10:38:10;;;;;;;11.87;10.87;;;29.50;99.90;;;;;;5023870;28;20421;-72
2023/08/17 10:40:38;;;;;;;11.10;10.20;;;29.60;99.90;;;;;;5032647;28;20413;-71
2023/08/17 10:43:04;;;;;;;9.83;8.93;;;29.90;99.90;;;;;;5028864;28;20435;-71
2023/08/17 10:45:31;;;;;;;12.30;11.10;;;30.10;99.90;;;;;;5012619;28;20414;-72
2023/08/17 10:48:09;;;;;;;12.67;11.63;;;30.30;99.90;;;;;;5021621;28;20253;-71
2023/08/17 10:50:36;;;;;;;11.57;10.63;;;30.30;99.90;;;;;;5031913;28;20892;-72
2023/08/17 10:53:10;;;;;;;10.37;9.50;;;30.30;99.90;;;;;;5032180;28;20516;-72
2023/08/17 10:55:40;;;;;;;9.90;9.10;;;30.50;99.90;;;;;;5032634;28;20402;-72
2023/08/17 10:58:08;;;;;;;8.07;7.37;;;31.30;99.90;;;;;;5022637;28;20411;-72
2023/08/17 11:00:41;;;;;;;11.00;10.10;;;32.80;99.90;;;;;;5014905;28;20410;-72
2023/08/17 11:03:11;;;;;;;10.73;9.83;;;33.40;99.90;;;;;;5012531;28;20944;-71
2023/08/17 11:05:41;;;;;;;11.47;10.57;;;33.30;99.90;;;;;;5012324;28;20493;-71
2023/08/17 11:08:09;;;;;;;10.90;9.60;;;32.60;99.90;;;;;;5022619;28;20424;-72
2023/08/17 11:10:35;;;;;;;11.10;9.70;;;32.70;99.90;;;;;;5032662;28;20414;-72
2023/08/17 11:13:01;;;;;;;10.77;9.67;;;32.80;99.90;;;;;;5029223;28;20780;-71
2023/08/17 11:15:48;;;;;;;10.13;9.23;;;32.90;99.90;;;;;;5011937;28;20617;-71
2023/08/17 11:18:14;;;;;;;11.47;10.47;;;33.20;99.90;;;;;;5023128;28;20409;-71
2023/08/17 11:20:42;;;;;;;10.00;9.10;;;33.10;99.90;;;;;;5031964;28;20485;-72
2023/08/17 11:23:08;;;;;;;10.70;9.83;;;33.00;99.90;;;;;;5031996;28;20679;-71
2023/08/17 11:25:35;;;;;;;10.13;9.13;;;33.50;99.90;;;;;;5030908;28;20460;-72
2023/08/17 11:28:01;;;;;;;10.03;9.23;;;34.70;98.60;;;;;;5023415;28;20399;-71
2023/08/17 11:30:27;;;;;;;12.30;9.37;;;35.00;97.80;;;;;;5012361;28;20402;-72
2023/08/17 11:32:54;;;;;;;13.07;11.97;;;34.50;98.10;;;;;;5012311;28;20961;-72
2023/08/17 11:35:21;;;;;;;11.60;10.53;;;33.90;98.60;;;;;;5012146;28;20390;-72
2023/08/17 11:37:48;;;;;;;10.40;9.50;;;33.70;99.00;;;;;;5018886;28;20464;-71
2023/08/17 11:40:14;;;;;;;10.13;9.33;;;34.10;98.30;;;;;;5032348;28;20458;-72
2023/08/17 11:42:40;;;;;;;10.30;9.40;;;33.60;99.00;;;;;;5032077;28;20483;-72
2023/08/17 11:45:09;;;;;;;9.03;8.33;;;34.80;97.80;;;;;;5015921;28;20434;-72
2023/08/17 11:47:35;;;;;;;8.97;8.17;;;35.50;96.10;;;;;;5016948;28;20413;-72
2023/08/17 11:50:05;;;;;;;9.50;8.70;;;34.20;97.80;;;;;;5031982;28;20402;-72
2023/08/17 11:52:36;;;;;;;9.20;8.23;;;34.00;98.10;;;;;;5032170;28;20426;-71
2023/08/17 11:55:14;;;;;;;10.00;9.10;;;33.10;98.80;;;;;;5032049;28;20842;-71
2023/08/17 11:57:39;;;;;;;9.83;9.00;;;34.00;98.50;;;;;;5026363;28;20543;-71
2023/08/17 12:00:06;;;;;;;10.17;9.17;;;34.30;97.30;;;;;;5012010;28;20930;-72
2023/08/17 12:02:33;;;;;;;8.70;7.90;;;34.70;97.10;;;;;;5012412;28;20195;-72
2023/08/17 12:05:06;;;;;;;9.37;8.57;;;35.10;97.00;;;;;;5015508;28;20453;-73
2023/08/17 12:07:31;;;;;;;8.70;7.90;;;34.10;96.40;;;;;;5020019;28;20892;-72
2023/08/17 12:09:57;;;;;;;9.20;8.40;;;33.40;97.80;;;;;;5035557;28;20478;-71
2023/08/17 12:12:23;;;;;;;8.90;8.00;;;33.30;98.20;;;;;;5027583;28;20196;-72
2023/08/17 12:14:49;;;;;;;8.57;7.97;;;33.20;97.70;;;;;;5015032;28;20171;-71
2023/08/17 12:17:16;;;;;;;7.90;7.10;;;34.20;96.50;;;;;;5017095;28;20192;-72
2023/08/17 12:19:43;;;;;;;7.40;6.80;;;34.80;95.90;;;;;;5035182;28;20413;-71
2023/08/17 12:22:08;;;;;;;7.50;6.90;;;33.40;96.80;;;;;;5034762;28;20495;-72
2023/08/17 12:24:35;;;;;;;8.30;7.60;;;32.30;98.50;;;;;;5034956;28;20485;-72
2023/08/17 12:27:03;;;;;;;8.47;7.40;;;31.80;99.30;;;;;;5034855;28;20171;-72
2023/08/17 12:29:29;;;;;;;8.60;7.90;;;31.80;99.40;;;;;;5015001;28;20407;-72
2023/08/17 12:32:07;;;;;;;8.77;8.07;;;31.40;99.90;;;;;;5026849;28;20846;-72